Time;durP1;ratioP1;P1;durP2;ratioP2;P2;SDS_P1;SDS_P2;PMS_P1;PMS_P2;Temp;Humidity;BMP_temperature;BMP_pressure;BME280_temperature;BME280_humidity;BME280_pressure;Samples;Min_cycle;Max_cycle;Signal;HPM_P1;HPM_P2
2022/01/27 00:01:25;;;;;;;14.38;5.70;;;6.50;99.90;;;;;;4987990;28;20421;-81
2022/01/27 00:04:04;;;;;;;22.15;7.90;;;6.40;99.90;;;;;;4984488;28;20083;-81
2022/01/27 00:06:34;;;;;;;8.77;4.63;;;6.40;99.90;;;;;;4971007;28;20051;-80
2022/01/27 00:09:12;;;;;;;13.73;5.38;;;6.40;99.90;;;;;;4975853;28;20046;-80
2022/01/27 00:11:38;;;;;;;7.43;4.35;;;6.40;99.90;;;;;;4981467;28;20057;-81
2022/01/27 00:14:04;;;;;;;18.15;8.63;;;6.40;99.90;;;;;;5009968;28;20077;-83
2022/01/27 00:16:34;;;;;;;18.45;8.02;;;6.50;99.90;;;;;;4986210;28;20434;-77
2022/01/27 00:19:00;;;;;;;9.10;5.57;;;6.50;99.90;;;;;;5001857;28;20050;-80
2022/01/27 00:21:29;;;;;;;13.52;7.40;;;6.50;99.90;;;;;;5006561;28;20069;-81
2022/01/27 00:23:55;;;;;;;15.73;6.22;;;6.40;99.90;;;;;;5001234;28;20038;-80
2022/01/27 00:26:21;;;;;;;;;;;6.40;99.90;;;;;;4987083;28;20635;-81
2022/01/27 00:28:48;;;;;;;14.88;7.30;;;6.40;99.90;;;;;;5019973;28;19921;-80
2022/01/27 00:31:17;;;;;;;8.07;4.80;;;6.40;99.90;;;;;;5004459;28;20046;-80
2022/01/27 00:33:44;;;;;;;12.50;6.65;;;6.40;99.90;;;;;;4980151;28;20050;-80
2022/01/27 00:36:10;;;;;;;9.07;5.38;;;6.40;99.90;;;;;;5002459;28;20378;-82
2022/01/27 00:38:36;;;;;;;7.78;4.47;;;6.40;99.90;;;;;;4991059;28;20046;-80
2022/01/27 00:41:01;;;;;;;18.48;8.32;;;6.40;99.90;;;;;;4986482;28;20092;-80
2022/01/27 00:43:27;;;;;;;7.70;4.60;;;6.40;99.90;;;;;;4988053;28;20428;-81
2022/01/27 00:45:53;;;;;;;16.80;9.07;;;6.30;99.90;;;;;;5003725;28;20035;-81
2022/01/27 00:48:19;;;;;;;15.00;6.70;;;6.30;99.90;;;;;;5006722;28;20046;-79
2022/01/27 00:50:52;;;;;;;13.57;8.05;;;6.30;99.90;;;;;;5005073;28;20043;-78
2022/01/27 00:53:43;;;;;;;15.50;7.97;;;6.30;99.90;;;;;;5004252;28;20038;-81
2022/01/27 00:56:37;;;;;;;11.23;5.82;;;6.30;99.90;;;;;;5002219;28;20108;-79
2022/01/27 00:59:05;;;;;;;8.02;5.13;;;6.50;99.90;;;;;;4989798;28;20085;-79
2022/01/27 01:01:38;;;;;;;20.13;7.88;;;6.30;99.90;;;;;;4990002;28;20104;-82
2022/01/27 01:04:07;;;;;;;12.43;5.90;;;6.30;99.90;;;;;;4983763;28;20473;-80
2022/01/27 01:06:39;;;;;;;17.10;7.28;;;6.40;99.90;;;;;;4994084;28;20461;-79
2022/01/27 01:17:27;;;;;;;13.88;7.95;;;6.30;99.90;;;;;;4991296;28;20129;-79
2022/01/27 01:33:08;;;;;;;15.25;7.03;;;6.00;99.90;;;;;;4964535;28;20392;-80
2022/01/27 01:35:48;;;;;;;14.43;6.97;;;6.00;99.90;;;;;;4986960;28;20034;-80
2022/01/27 01:38:18;;;;;;;14.32;5.32;;;6.00;99.90;;;;;;4999158;28;20046;-80
2022/01/27 01:40:50;;;;;;;7.57;5.13;;;5.90;99.90;;;;;;4985317;28;20512;-80
2022/01/27 01:43:17;;;;;;;9.63;6.15;;;5.80;99.90;;;;;;4974161;28;20070;-80
2022/01/27 01:45:43;;;;;;;19.85;9.55;;;6.00;99.90;;;;;;4985040;28;20117;-80
2022/01/27 01:48:09;;;;;;;12.68;7.85;;;5.90;99.90;;;;;;5006207;28;20046;-79
2022/01/27 01:50:36;;;;;;;11.02;6.20;;;5.90;99.90;;;;;;5006525;28;20419;-80
2022/01/27 01:53:03;;;;;;;8.50;5.80;;;6.00;99.90;;;;;;4998471;28;20121;-80
2022/01/27 01:55:30;;;;;;;14.48;8.27;;;5.90;99.90;;;;;;4991394;28;20407;-82
2022/01/27 01:57:57;;;;;;;11.00;6.18;;;6.00;99.90;;;;;;4988048;28;20515;-81
2022/01/27 02:00:24;;;;;;;13.30;9.55;;;5.90;99.90;;;;;;4989324;28;20484;-81
2022/01/27 02:02:50;;;;;;;19.25;8.60;;;5.90;99.90;;;;;;4976853;28;20085;-80
2022/01/27 02:05:16;;;;;;;14.88;7.47;;;6.00;99.90;;;;;;4986264;28;20039;-80
2022/01/27 02:08:12;;;;;;;18.65;8.43;;;6.00;99.90;;;;;;4960945;28;20043;-81
2022/01/27 02:19:15;;;;;;;23.20;6.15;;;5.80;99.90;;;;;;4977922;28;20058;-80
2022/01/27 02:21:53;;;;;;;16.48;6.30;;;5.90;99.90;;;;;;4977225;28;20043;-81
2022/01/27 02:24:20;;;;;;;17.33;8.23;;;5.90;99.90;;;;;;4984837;28;20037;-80
2022/01/27 02:26:49;;;;;;;15.25;7.10;;;5.90;99.90;;;;;;4976613;28;20170;-79
2022/01/27 02:29:19;;;;;;;10.77;5.78;;;5.90;99.90;;;;;;4986730;28;20117;-79
2022/01/27 02:31:45;;;;;;;11.32;7.82;;;6.00;99.90;;;;;;4990146;28;20142;-81
2022/01/27 02:34:11;;;;;;;6.90;5.18;;;6.00;99.90;;;;;;4987573;28;20050;-79
2022/01/27 02:36:37;;;;;;;17.05;9.05;;;6.00;99.90;;;;;;4976223;28;20041;-81
2022/01/27 02:39:05;;;;;;;15.57;8.90;;;5.90;99.90;;;;;;4984695;28;20126;-80
2022/01/27 02:41:40;;;;;;;10.32;6.45;;;5.90;99.90;;;;;;4975100;28;20039;-80
2022/01/27 02:44:06;;;;;;;9.88;6.78;;;5.90;99.90;;;;;;4980916;28;20043;-80
2022/01/27 02:46:42;;;;;;;17.10;9.35;;;5.90;99.90;;;;;;5001285;28;20042;-79
2022/01/27 02:49:08;;;;;;;23.20;13.52;;;5.90;99.90;;;;;;4978927;28;20420;-79
2022/01/27 02:51:37;;;;;;;14.95;9.10;;;6.00;99.90;;;;;;4984145;28;20045;-78
2022/01/27 02:54:04;;;;;;;15.80;6.63;;;6.00;99.90;;;;;;4987864;28;20046;-78
2022/01/27 02:56:30;;;;;;;10.65;6.45;;;6.00;99.90;;;;;;4988150;28;20049;-80
2022/01/27 02:58:56;;;;;;;21.88;10.30;;;6.00;99.90;;;;;;4960755;28;20108;-81
2022/01/27 03:01:22;;;;;;;24.48;10.45;;;6.00;99.90;;;;;;4978300;28;20042;-79
2022/01/27 03:03:48;;;;;;;17.50;8.02;;;6.00;99.90;;;;;;4986574;28;20089;-81
2022/01/27 03:06:14;;;;;;;17.95;7.78;;;6.00;99.90;;;;;;4979394;28;20049;-81
2022/01/27 03:08:41;;;;;;;17.40;8.27;;;5.90;99.90;;;;;;4959749;28;20049;-81
2022/01/27 03:11:12;;;;;;;17.00;7.55;;;6.00;99.90;;;;;;4956988;28;20127;-81
2022/01/27 03:13:40;;;;;;;12.23;7.07;;;5.90;99.90;;;;;;4977723;28;20042;-82
2022/01/27 03:16:08;;;;;;;24.80;7.85;;;6.00;99.90;;;;;;4986048;28;20503;-82
2022/01/27 03:18:34;;;;;;;9.23;5.70;;;6.00;99.90;;;;;;4990840;28;20090;-83
2022/01/27 03:20:59;;;;;;;;;;;6.10;99.90;;;;;;4965066;28;20070;-83
2022/01/27 03:23:25;;;;;;;15.23;7.10;;;6.00;99.90;;;;;;5008825;28;19922;-80
2022/01/27 03:25:51;;;;;;;15.45;8.77;;;6.10;99.90;;;;;;4982773;28;20584;-79
2022/01/27 03:28:18;;;;;;;16.00;9.95;;;6.10;99.90;;;;;;4973498;28;20061;-79
2022/01/27 03:30:44;;;;;;;12.75;7.28;;;6.10;99.90;;;;;;4956294;28;20047;-80
2022/01/27 03:33:10;;;;;;;15.43;7.82;;;6.10;99.90;;;;;;4975650;28;20045;-81
2022/01/27 03:35:36;;;;;;;13.80;7.75;;;6.10;99.90;;;;;;5006091;28;20380;-77
2022/01/27 03:38:02;;;;;;;19.63;8.80;;;6.10;99.90;;;;;;4987158;28;20497;-81
2022/01/27 03:40:27;;;;;;;16.88;7.47;;;6.20;99.90;;;;;;4959434;28;20034;-79
2022/01/27 03:43:04;;;;;;;24.73;10.38;;;6.10;99.90;;;;;;4986525;28;20046;-81
2022/01/27 03:45:30;;;;;;;13.10;7.05;;;6.10;99.90;;;;;;4973106;28;20046;-79
2022/01/27 03:47:57;;;;;;;18.80;9.15;;;6.20;99.90;;;;;;4980538;28;20114;-80
2022/01/27 03:50:22;;;;;;;15.80;8.23;;;6.10;99.90;;;;;;4960017;28;20385;-80
2022/01/27 03:52:48;;;;;;;12.52;7.38;;;6.20;99.90;;;;;;4982850;28;20046;-80
2022/01/27 03:55:14;;;;;;;15.45;7.55;;;6.20;99.90;;;;;;4972397;28;20038;-82
2022/01/27 03:57:40;;;;;;;16.42;7.57;;;6.20;99.90;;;;;;4975379;28;20116;-80
2022/01/27 04:00:07;;;;;;;24.98;10.55;;;6.20;99.90;;;;;;4974429;28;20046;-81
2022/01/27 04:02:39;;;;;;;15.15;6.88;;;6.20;99.90;;;;;;4975505;28;20051;-82
2022/01/27 04:05:07;;;;;;;11.07;6.53;;;6.20;99.90;;;;;;5005974;28;20113;-81
2022/01/27 04:07:33;;;;;;;22.00;9.98;;;6.20;99.90;;;;;;4969322;28;20076;-79
2022/01/27 04:09:58;;;;;;;10.40;6.85;;;6.20;99.90;;;;;;4976796;28;20038;-81
2022/01/27 04:12:24;;;;;;;16.13;8.02;;;6.20;99.90;;;;;;4971519;28;20050;-81
2022/01/27 04:14:50;;;;;;;20.02;8.23;;;6.10;99.90;;;;;;4973734;28;20492;-81
2022/01/27 04:17:15;;;;;;;8.32;6.35;;;6.20;99.90;;;;;;4964242;28;20080;-80
2022/01/27 04:19:41;;;;;;;17.55;6.50;;;6.20;99.90;;;;;;4992383;28;20043;-79
2022/01/27 04:22:07;;;;;;;10.50;5.75;;;6.20;99.90;;;;;;4955436;28;20039;-80
2022/01/27 04:24:32;;;;;;;14.10;6.47;;;6.20;99.90;;;;;;4973430;28;20479;-80
2022/01/27 04:27:04;;;;;;;18.90;8.90;;;6.20;99.90;;;;;;4966183;28;20117;-79
2022/01/27 04:29:33;;;;;;;19.10;8.75;;;6.50;99.90;;;;;;4974762;28;20050;-79
2022/01/27 04:32:01;;;;;;;23.65;10.95;;;6.30;99.90;;;;;;4987723;28;20050;-79
2022/01/27 04:34:27;;;;;;;17.88;7.45;;;6.30;99.90;;;;;;4968581;28;20397;-79
2022/01/27 04:36:55;;;;;;;17.83;8.80;;;6.30;99.90;;;;;;5005777;28;20120;-80
2022/01/27 04:39:38;;;;;;;13.00;7.47;;;6.30;99.90;;;;;;4994210;28;20421;-80
2022/01/27 04:42:11;;;;;;;17.00;9.40;;;6.40;99.90;;;;;;4961794;28;20501;-80
2022/01/27 04:44:45;;;;;;;24.33;11.48;;;6.20;99.90;;;;;;4975517;28;20046;-79
2022/01/27 04:47:18;;;;;;;21.42;9.50;;;6.20;99.90;;;;;;4972373;28;20121;-80
2022/01/27 04:49:45;;;;;;;10.80;6.40;;;6.20;99.90;;;;;;4942942;28;20689;-81
2022/01/27 04:52:11;;;;;;;20.02;10.23;;;6.10;99.90;;;;;;4955544;28;20039;-80
2022/01/27 04:54:50;;;;;;;17.35;7.00;;;6.10;99.90;;;;;;4966810;28;20054;-80
2022/01/27 04:57:16;;;;;;;18.42;9.10;;;6.10;99.90;;;;;;4983542;28;20054;-79
2022/01/27 04:59:43;;;;;;;18.45;8.93;;;6.20;99.90;;;;;;4977748;28;20052;-80
2022/01/27 05:02:17;;;;;;;10.57;5.75;;;6.10;99.90;;;;;;4953052;28;20050;-79
2022/01/27 05:04:47;;;;;;;20.98;11.50;;;6.10;99.90;;;;;;4971704;28;20457;-80
2022/01/27 05:07:12;;;;;;;16.50;7.82;;;6.00;99.90;;;;;;4986812;28;20042;-82
2022/01/27 05:09:46;;;;;;;17.67;7.25;;;6.00;99.90;;;;;;5003908;28;20036;-81
2022/01/27 05:12:20;;;;;;;19.60;9.38;;;5.80;99.90;;;;;;4992851;28;20088;-81
2022/01/27 05:14:46;;;;;;;16.30;6.72;;;5.90;99.90;;;;;;4959364;28;20105;-79
2022/01/27 05:17:11;;;;;;;13.15;5.97;;;5.80;99.90;;;;;;4995027;28;20050;-81
2022/01/27 05:19:37;;;;;;;18.52;7.63;;;5.70;99.90;;;;;;4991209;28;20472;-82
2022/01/27 05:22:03;;;;;;;16.17;8.82;;;5.70;99.90;;;;;;4993403;28;20042;-82
2022/01/27 05:24:28;;;;;;;16.38;8.13;;;5.70;99.90;;;;;;4966743;28;20118;-81
2022/01/27 05:26:54;;;;;;;19.95;6.68;;;5.60;99.90;;;;;;4994937;28;20074;-83
2022/01/27 05:29:20;;;;;;;16.40;7.07;;;5.70;99.90;;;;;;4977615;28;20132;-81
2022/01/27 05:31:46;;;;;;;26.23;7.75;;;5.70;99.90;;;;;;4959662;28;20097;-82
2022/01/27 05:34:11;;;;;;;15.40;8.13;;;5.60;99.90;;;;;;4986925;28;20157;-83
2022/01/27 05:36:37;;;;;;;20.73;7.97;;;5.60;99.90;;;;;;4977824;28;20048;-82
2022/01/27 05:39:04;;;;;;;17.45;7.00;;;5.60;99.90;;;;;;4982473;28;20081;-83
2022/01/27 05:41:30;;;;;;;22.83;8.23;;;5.60;99.90;;;;;;4990656;28;20080;-82
2022/01/27 05:43:56;;;;;;;16.58;7.57;;;5.60;99.90;;;;;;4974672;28;20038;-81
2022/01/27 05:46:22;;;;;;;22.98;9.45;;;5.80;99.90;;;;;;5010720;28;20488;-83
2022/01/27 05:48:47;;;;;;;24.13;9.40;;;5.70;99.90;;;;;;4961677;28;20823;-80
2022/01/27 05:51:14;;;;;;;12.82;5.85;;;5.70;99.90;;;;;;4994574;28;20042;-84
2022/01/27 05:53:39;;;;;;;;;;;5.70;99.90;;;;;;4961330;28;20129;-82
2022/01/27 05:56:05;;;;;;;11.10;6.38;;;6.00;99.90;;;;;;4968633;28;20045;-82
2022/01/27 05:58:31;;;;;;;28.02;9.00;;;5.80;99.90;;;;;;4991536;28;20054;-80
2022/01/27 06:00:57;;;;;;;18.33;8.45;;;5.90;99.90;;;;;;5010265;28;20069;-81
2022/01/27 06:03:22;;;;;;;19.58;7.70;;;5.90;99.90;;;;;;5002935;28;20045;-80
2022/01/27 06:05:48;;;;;;;22.13;11.63;;;5.90;99.90;;;;;;4989820;28;20038;-82
2022/01/27 06:08:14;;;;;;;9.25;6.70;;;5.90;99.90;;;;;;4984212;28;20038;-81
2022/01/27 06:10:40;;;;;;;12.95;5.32;;;5.90;99.90;;;;;;4977499;28;20045;-83
2022/01/27 06:13:05;;;;;;;12.93;6.28;;;5.90;99.90;;;;;;4958001;28;20045;-81
2022/01/27 06:15:31;;;;;;;14.45;7.32;;;5.90;99.90;;;;;;4987043;28;20719;-82
2022/01/27 06:17:58;;;;;;;19.90;8.50;;;5.90;99.90;;;;;;5015887;28;20046;-80
2022/01/27 06:20:24;;;;;;;8.82;6.50;;;5.90;99.90;;;;;;4990790;28;20526;-81
2022/01/27 06:22:54;;;;;;;14.98;6.07;;;5.80;99.90;;;;;;4974576;28;20042;-80
2022/01/27 06:25:20;;;;;;;17.00;6.25;;;5.90;99.90;;;;;;4957704;28;20047;-81
2022/01/27 06:27:48;;;;;;;12.20;5.13;;;5.90;99.90;;;;;;4993855;28;20117;-81
2022/01/27 06:30:13;;;;;;;18.85;7.15;;;5.90;99.90;;;;;;4994160;28;20448;-80
2022/01/27 06:32:39;;;;;;;13.52;5.35;;;6.00;99.90;;;;;;4994917;28;20054;-83
2022/01/27 06:35:06;;;;;;;11.18;6.00;;;6.00;99.90;;;;;;4985475;28;20038;-82
2022/01/27 06:37:32;;;;;;;13.77;5.93;;;6.00;99.90;;;;;;4982873;28;20061;-82
2022/01/27 06:39:58;;;;;;;10.18;5.15;;;6.00;99.90;;;;;;5003454;28;20091;-81
2022/01/27 06:42:24;;;;;;;14.75;7.25;;;6.10;99.90;;;;;;4985944;28;20374;-82
2022/01/27 06:44:50;;;;;;;16.00;8.10;;;6.40;99.90;;;;;;4986673;28;20038;-83
2022/01/27 06:47:16;;;;;;;20.33;6.60;;;6.10;99.90;;;;;;4987709;28;20046;-83
2022/01/27 06:49:41;;;;;;;13.57;6.93;;;6.10;99.90;;;;;;4981322;28;20047;-84
2022/01/27 06:52:07;;;;;;;12.45;7.63;;;6.20;99.90;;;;;;5003997;28;20061;-84
2022/01/27 06:54:33;;;;;;;19.23;9.07;;;6.10;99.90;;;;;;4987375;28;20046;-82
2022/01/27 06:57:00;;;;;;;12.95;6.80;;;6.20;99.90;;;;;;4996955;28;20043;-82
2022/01/27 06:59:26;;;;;;;9.02;5.97;;;6.20;99.90;;;;;;4974388;28;20054;-80
2022/01/27 07:01:52;;;;;;;25.75;7.47;;;6.20;99.90;;;;;;5001496;28;20062;-80
2022/01/27 07:04:17;;;;;;;12.50;6.50;;;6.20;99.90;;;;;;4989338;28;20064;-81
2022/01/27 07:06:43;;;;;;;13.55;5.40;;;6.20;99.90;;;;;;5002787;28;20053;-79
2022/01/27 07:09:09;;;;;;;14.02;6.68;;;6.20;99.90;;;;;;4989598;28;20070;-82
2022/01/27 07:11:35;;;;;;;10.15;4.95;;;6.20;99.90;;;;;;4987978;28;20377;-79
2022/01/27 07:14:01;;;;;;;14.80;6.60;;;6.20;99.90;;;;;;4957353;28;20060;-79
2022/01/27 07:16:27;;;;;;;13.02;6.82;;;6.20;99.90;;;;;;4976636;28;20121;-79
2022/01/27 07:18:52;;;;;;;7.28;5.22;;;6.30;99.90;;;;;;4958283;28;20431;-78
2022/01/27 07:21:19;;;;;;;23.92;5.15;;;6.30;99.90;;;;;;4986302;28;20129;-79
2022/01/27 07:23:46;;;;;;;15.75;6.13;;;6.30;99.90;;;;;;5002800;28;20037;-79
2022/01/27 07:26:12;;;;;;;11.93;6.22;;;6.30;99.90;;;;;;5020680;28;20050;-80
2022/01/27 07:28:37;;;;;;;8.32;5.53;;;6.30;99.90;;;;;;4973823;28;20054;-79
2022/01/27 07:31:03;;;;;;;12.45;5.10;;;6.40;99.90;;;;;;4983551;28;20050;-78
2022/01/27 07:33:29;;;;;;;14.77;7.90;;;6.40;99.90;;;;;;4992402;28;20046;-79
2022/01/27 07:35:55;;;;;;;13.68;5.38;;;6.40;99.90;;;;;;5003113;28;20415;-80
2022/01/27 07:38:23;;;;;;;8.55;5.25;;;6.40;99.90;;;;;;5011516;28;20069;-79
2022/01/27 07:40:49;;;;;;;15.77;7.28;;;6.50;99.90;;;;;;4960879;28;20049;-78
2022/01/27 07:43:15;;;;;;;9.02;5.57;;;6.50;99.90;;;;;;4979869;28;20034;-78
2022/01/27 07:45:42;;;;;;;11.43;6.75;;;6.50;99.90;;;;;;4989049;28;20380;-77
2022/01/27 07:48:08;;;;;;;14.45;6.82;;;6.50;99.90;;;;;;4991751;28;20113;-80
2022/01/27 07:50:34;;;;;;;16.00;5.25;;;6.60;99.90;;;;;;4990137;28;20559;-79
2022/01/27 07:53:01;;;;;;;12.90;5.47;;;6.60;99.90;;;;;;4970872;28;20042;-77
2022/01/27 07:55:28;;;;;;;10.00;5.20;;;6.60;99.90;;;;;;4990547;28;20057;-78
2022/01/27 07:57:55;;;;;;;19.25;6.20;;;6.60;99.90;;;;;;4985360;28;20061;-77
2022/01/27 08:00:20;;;;;;;16.77;6.55;;;6.80;99.90;;;;;;4992434;28;20046;-78
2022/01/27 08:02:46;;;;;;;13.80;7.00;;;6.70;99.90;;;;;;4986729;28;20054;-78
2022/01/27 08:05:12;;;;;;;28.85;6.47;;;6.70;99.90;;;;;;4990331;28;20050;-77
2022/01/27 08:07:38;;;;;;;;;;;6.90;99.90;;;;;;4975342;28;20042;-77
2022/01/27 08:10:05;;;;;;;13.30;5.78;;;6.90;99.90;;;;;;4976522;28;20093;-78
2022/01/27 08:12:31;;;;;;;11.50;5.50;;;7.00;99.90;;;;;;5005771;28;20451;-79
2022/01/27 08:14:57;;;;;;;11.77;5.43;;;7.00;99.90;;;;;;5003950;28;20042;-79
2022/01/27 08:17:23;;;;;;;7.28;4.82;;;7.00;99.90;;;;;;4992711;28;20050;-79
2022/01/27 08:19:48;;;;;;;20.48;4.35;;;7.00;99.90;;;;;;4972642;28;20035;-79
2022/01/27 08:22:14;;;;;;;15.77;5.60;;;7.10;99.90;;;;;;4959316;28;20345;-79
2022/01/27 08:24:41;;;;;;;11.07;4.68;;;7.00;99.90;;;;;;4959258;28;20046;-80
2022/01/27 08:27:09;;;;;;;10.13;4.80;;;7.10;99.90;;;;;;4988394;28;20361;-80
2022/01/27 08:29:42;;;;;;;9.82;3.90;;;7.10;99.90;;;;;;4972785;28;20058;-79
2022/01/27 08:32:15;;;;;;;8.10;4.32;;;7.20;99.90;;;;;;5000724;28;20046;-79
2022/01/27 08:34:41;;;;;;;8.75;4.97;;;7.30;99.90;;;;;;4989110;28;20053;-77
2022/01/27 08:37:10;;;;;;;12.10;5.07;;;7.40;99.90;;;;;;4991518;28;20070;-79
2022/01/27 08:39:36;;;;;;;10.60;6.20;;;7.40;99.90;;;;;;4990636;28;20503;-78
2022/01/27 08:42:03;;;;;;;10.75;4.22;;;7.40;99.90;;;;;;4987162;28;20076;-78
2022/01/27 08:44:29;;;;;;;13.35;3.92;;;7.40;99.90;;;;;;4990772;28;20048;-78
2022/01/27 08:46:55;;;;;;;6.90;3.83;;;7.40;99.90;;;;;;4985348;28;20460;-80
2022/01/27 08:49:24;;;;;;;9.02;3.70;;;7.40;99.90;;;;;;4969107;28;20043;-78
2022/01/27 08:51:49;;;;;;;15.63;3.33;;;7.40;99.90;;;;;;4974297;28;20463;-77
2022/01/27 08:54:16;;;;;;;4.95;3.35;;;7.40;99.90;;;;;;4990017;28;20086;-79
2022/01/27 08:56:41;;;;;;;;;;;7.50;99.90;;;;;;4981436;28;20049;-80
2022/01/27 08:59:08;;;;;;;13.43;4.75;;;7.50;99.90;;;;;;4968598;28;20381;-77
2022/01/27 09:01:40;;;;;;;9.35;3.85;;;7.50;99.90;;;;;;4989231;28;20376;-77
2022/01/27 09:04:06;;;;;;;;;;;7.50;99.90;;;;;;4987082;28;20560;-80
2022/01/27 09:06:32;;;;;;;6.43;2.65;;;7.50;99.90;;;;;;4998791;28;20016;-81
2022/01/27 09:09:05;;;;;;;10.57;3.85;;;7.60;99.90;;;;;;4974367;28;20074;-79
2022/01/27 09:11:32;;;;;;;7.20;3.10;;;7.60;99.90;;;;;;5003640;28;20066;-81
2022/01/27 09:13:59;;;;;;;8.07;3.25;;;7.60;99.90;;;;;;4976283;28;20162;-80
2022/01/27 09:16:27;;;;;;;7.60;3.15;;;7.70;99.90;;;;;;4958066;28;20411;-81
2022/01/27 09:18:54;;;;;;;15.10;3.85;;;7.70;99.90;;;;;;4973651;28;20053;-77
2022/01/27 09:21:24;;;;;;;3.97;2.72;;;7.80;99.90;;;;;;4983774;28;20117;-82
2022/01/27 09:23:51;;;;;;;5.50;2.90;;;7.80;99.90;;;;;;4969611;28;20035;-78
2022/01/27 09:27:17;;;;;;;6.20;3.22;;;7.80;99.90;;;;;;4989485;28;20121;-79
2022/01/27 09:29:15;;;;;;;6.32;2.20;;;7.80;99.90;;;;;;4981548;28;20054;-81
2022/01/27 09:31:41;;;;;;;4.60;2.28;;;7.90;99.90;;;;;;4988301;28;20500;-81
2022/01/27 09:34:07;;;;;;;7.25;3.58;;;7.90;99.90;;;;;;4972495;28;20124;-79
2022/01/27 09:36:32;;;;;;;8.85;3.15;;;8.00;99.90;;;;;;4981879;28;20476;-78
2022/01/27 09:38:58;;;;;;;8.98;2.80;;;8.10;99.90;;;;;;4988287;28;20065;-78
2022/01/27 09:41:27;;;;;;;4.75;2.85;;;8.10;99.90;;;;;;4955929;28;20035;-79
2022/01/27 09:43:54;;;;;;;9.63;3.03;;;8.10;99.90;;;;;;4985405;28;20050;-79
2022/01/27 09:46:22;;;;;;;16.33;3.20;;;8.10;99.90;;;;;;4981649;28;20038;-81
2022/01/27 09:48:52;;;;;;;6.63;3.22;;;8.20;99.90;;;;;;4963545;28;20053;-80
2022/01/27 09:51:25;;;;;;;4.63;2.50;;;8.10;99.90;;;;;;4985829;28;20116;-79
2022/01/27 09:53:55;;;;;;;2.63;2.15;;;8.10;99.90;;;;;;4989527;28;20380;-80
2022/01/27 09:56:21;;;;;;;7.65;3.13;;;8.20;99.90;;;;;;4991864;28;20042;-81
2022/01/27 09:58:50;;;;;;;8.57;2.08;;;8.20;99.90;;;;;;4992293;28;20125;-77
2022/01/27 10:01:17;;;;;;;7.93;2.80;;;8.20;99.90;;;;;;4977143;28;20518;-79
2022/01/27 10:04:00;;;;;;;3.88;2.33;;;8.30;99.90;;;;;;5008914;28;20052;-80
2022/01/27 10:06:30;;;;;;;7.30;2.15;;;8.30;99.90;;;;;;4996092;28;20046;-78
2022/01/27 10:09:20;;;;;;;10.63;2.75;;;8.20;99.90;;;;;;4987550;28;20069;-76
2022/01/27 10:11:52;;;;;;;6.18;2.58;;;8.40;99.90;;;;;;5003184;28;20545;-80
2022/01/27 10:14:21;;;;;;;;;;;8.40;99.90;;;;;;4979601;28;20054;-80
2022/01/27 10:16:49;;;;;;;8.70;2.28;;;8.40;99.90;;;;;;4998095;28;20287;-81
2022/01/27 10:19:15;;;;;;;6.35;2.63;;;8.50;99.90;;;;;;5016788;28;20042;-79
2022/01/27 10:21:41;;;;;;;7.20;2.20;;;8.40;99.90;;;;;;5017707;28;20050;-78
2022/01/27 10:24:23;;;;;;;11.27;2.63;;;8.50;99.90;;;;;;4976332;28;20113;-80
2022/01/27 10:27:15;;;;;;;4.53;2.22;;;8.50;99.90;;;;;;4988610;28;20050;-82
2022/01/27 10:30:01;;;;;;;4.78;2.08;;;8.50;99.90;;;;;;4975096;28;20198;-80
2022/01/27 10:32:59;;;;;;;3.88;1.95;;;8.50;99.90;;;;;;4998301;28;20057;-81
2022/01/27 10:35:26;;;;;;;11.27;1.98;;;8.50;99.90;;;;;;4971798;28;20042;-80
2022/01/27 10:37:56;;;;;;;5.90;1.58;;;8.60;99.90;;;;;;4992592;28;20043;-81
2022/01/27 10:40:27;;;;;;;6.00;2.13;;;8.60;99.90;;;;;;4993741;28;20071;-80
2022/01/27 10:43:21;;;;;;;8.48;3.00;;;8.70;99.90;;;;;;4989205;28;20488;-79
2022/01/27 10:46:11;;;;;;;2.90;1.38;;;8.80;99.90;;;;;;4987059;28;20073;-80
2022/01/27 10:48:54;;;;;;;6.55;2.70;;;8.90;99.90;;;;;;5008440;28;20117;-79
2022/01/27 10:51:34;;;;;;;5.07;2.33;;;8.90;99.90;;;;;;4984709;28;20046;-83
2022/01/27 10:54:04;;;;;;;12.07;2.72;;;8.90;99.90;;;;;;4992951;28;20069;-78
2022/01/27 10:56:34;;;;;;;3.28;2.03;;;8.90;99.90;;;;;;4977692;28;20046;-79
2022/01/27 10:59:04;;;;;;;5.93;2.67;;;9.00;99.90;;;;;;4990679;28;20046;-79
2022/01/27 11:01:33;;;;;;;8.65;2.33;;;9.00;99.90;;;;;;4983443;28;20081;-81
2022/01/27 11:04:02;;;;;;;6.22;2.60;;;9.00;99.90;;;;;;4983478;28;20121;-81
2022/01/27 11:06:30;;;;;;;8.45;2.72;;;9.00;99.90;;;;;;4974212;28;20388;-78
2022/01/27 11:08:59;;;;;;;3.17;1.25;;;9.00;99.90;;;;;;4990284;28;20041;-80
2022/01/27 11:11:26;;;;;;;6.47;2.25;;;9.10;99.90;;;;;;5008859;28;20046;-82
2022/01/27 11:13:55;;;;;;;7.43;2.35;;;9.10;99.90;;;;;;4991747;28;20191;-78
2022/01/27 11:16:30;;;;;;;4.65;1.40;;;9.10;99.90;;;;;;4991817;28;20456;-78
2022/01/27 11:19:10;;;;;;;4.68;2.10;;;9.10;99.90;;;;;;4982590;28;20053;-82
2022/01/27 11:21:39;;;;;;;4.70;2.55;;;9.00;99.90;;;;;;4975299;28;20053;-81
2022/01/27 11:24:14;;;;;;;8.60;2.35;;;9.20;99.90;;;;;;4981890;28;20144;-78
2022/01/27 11:26:44;;;;;;;4.65;1.70;;;9.10;99.90;;;;;;4976463;28;20050;-79
2022/01/27 11:29:12;;;;;;;6.43;2.65;;;9.10;99.90;;;;;;4989230;28;20105;-78
2022/01/27 11:31:43;;;;;;;3.72;2.50;;;9.10;99.90;;;;;;4990879;28;20054;-78
2022/01/27 11:34:10;;;;;;;6.15;2.67;;;9.10;99.90;;;;;;4992852;28;20038;-79
2022/01/27 11:36:38;;;;;;;5.15;2.40;;;9.10;99.90;;;;;;4979364;28;20057;-83
2022/01/27 11:39:11;;;;;;;8.23;2.15;;;9.20;99.90;;;;;;4982763;28;20043;-81
2022/01/27 11:41:47;;;;;;;4.20;1.77;;;9.10;99.90;;;;;;4970524;28;20554;-82
2022/01/27 11:44:32;;;;;;;5.00;2.22;;;9.10;99.90;;;;;;4974315;28;20061;-82
2022/01/27 11:47:11;;;;;;;4.63;2.20;;;9.20;99.90;;;;;;5000143;28;20133;-81
2022/01/27 11:49:57;;;;;;;7.15;2.15;;;9.20;99.90;;;;;;4981955;28;20046;-80
2022/01/27 11:52:51;;;;;;;6.68;2.30;;;9.10;99.90;;;;;;4990536;28;20065;-81
2022/01/27 11:55:25;;;;;;;4.32;1.73;;;9.20;99.90;;;;;;5003485;28;20062;-81
2022/01/27 11:57:56;;;;;;;6.75;1.92;;;9.20;99.90;;;;;;4987813;28;20062;-78
2022/01/27 12:00:27;;;;;;;2.75;1.63;;;9.10;99.90;;;;;;4990634;28;20459;-77
2022/01/27 12:02:56;;;;;;;8.35;3.05;;;9.20;99.90;;;;;;4974417;28;20404;-81
2022/01/27 12:05:23;;;;;;;8.75;1.55;;;9.20;99.90;;;;;;4988341;28;20063;-78
2022/01/27 12:08:14;;;;;;;10.95;1.98;;;9.20;99.90;;;;;;4964139;28;20046;-77
2022/01/27 12:10:50;;;;;;;6.35;2.10;;;9.30;99.90;;;;;;4998556;28;20042;-78
2022/01/27 12:13:37;;;;;;;8.35;2.03;;;9.30;99.90;;;;;;4989546;28;20077;-78
2022/01/27 12:19:04;;;;;;;14.13;2.10;;;9.20;99.90;;;;;;4988801;28;20046;-79
2022/01/27 12:21:35;;;;;;;8.70;1.88;;;9.20;99.90;;;;;;4972507;28;20050;-76
2022/01/27 12:24:28;;;;;;;7.10;1.98;;;9.20;99.90;;;;;;4989948;28;20045;-78
2022/01/27 12:27:08;;;;;;;11.63;2.15;;;9.20;99.90;;;;;;5002166;28;20069;-77
2022/01/27 12:29:42;;;;;;;2.60;1.45;;;9.30;99.90;;;;;;4991294;28;20054;-76
2022/01/27 12:32:18;;;;;;;3.20;1.60;;;9.20;99.90;;;;;;4982082;28;20090;-77
2022/01/27 12:34:52;;;;;;;9.48;1.92;;;9.30;99.90;;;;;;4989598;28;20038;-77
2022/01/27 12:37:21;;;;;;;3.85;1.58;;;9.20;99.90;;;;;;4991116;28;20465;-77
2022/01/27 12:39:54;;;;;;;13.65;2.80;;;9.30;99.90;;;;;;4986087;28;20039;-79
2022/01/27 12:42:23;;;;;;;4.28;1.85;;;9.20;99.90;;;;;;4986380;28;20210;-78
2022/01/27 12:45:02;;;;;;;5.05;1.65;;;9.20;99.90;;;;;;4985068;28;20042;-78
2022/01/27 12:47:30;;;;;;;4.05;1.70;;;9.20;99.90;;;;;;4989375;28;20050;-76
2022/01/27 12:50:09;;;;;;;8.80;1.70;;;9.30;99.90;;;;;;4989779;28;20125;-77
2022/01/27 12:52:41;;;;;;;6.75;2.28;;;9.30;99.90;;;;;;4992390;28;20114;-78
2022/01/27 12:55:16;;;;;;;4.78;1.83;;;9.30;99.90;;;;;;5004346;28;20717;-76
2022/01/27 12:57:42;;;;;;;2.92;1.35;;;9.30;99.90;;;;;;4984468;28;20045;-78
2022/01/27 13:00:11;;;;;;;5.45;1.42;;;9.30;99.90;;;;;;4985529;28;20050;-77
2022/01/27 13:02:38;;;;;;;3.35;1.23;;;9.30;99.90;;;;;;4990119;28;20145;-77
2022/01/27 13:05:04;;;;;;;;;;;9.20;99.90;;;;;;4991356;28;20038;-78
2022/01/27 13:07:30;;;;;;;9.30;2.13;;;9.30;99.90;;;;;;4990896;28;20001;-77
2022/01/27 13:10:04;;;;;;;14.45;1.60;;;9.20;99.90;;;;;;4988024;28;20072;-78
2022/01/27 13:12:36;;;;;;;1.20;1.10;;;9.20;99.90;;;;;;4971983;28;20142;-79
2022/01/27 13:15:09;;;;;;;9.57;2.22;;;9.20;99.90;;;;;;5002164;28;20085;-77
2022/01/27 13:20:17;;;;;;;6.80;1.92;;;9.10;99.90;;;;;;4987804;28;20137;-76
2022/01/27 13:22:44;;;;;;;7.70;2.60;;;9.20;99.90;;;;;;4984773;28;20031;-75
2022/01/27 13:25:10;;;;;;;2.85;2.15;;;9.10;99.90;;;;;;5000317;28;20045;-76
2022/01/27 13:27:36;;;;;;;7.82;1.90;;;9.20;99.90;;;;;;4988482;28;20125;-77
2022/01/27 13:30:02;;;;;;;7.65;1.58;;;9.30;99.90;;;;;;4988364;28;20058;-75
2022/01/27 13:32:28;;;;;;;4.50;1.40;;;9.20;99.90;;;;;;4975471;28;20477;-76
2022/01/27 13:34:54;;;;;;;6.82;1.20;;;9.20;99.90;;;;;;4984842;28;20097;-75
2022/01/27 13:37:32;;;;;;;5.10;1.52;;;9.10;99.90;;;;;;4983880;28;20125;-76
2022/01/27 13:42:24;;;;;;;8.20;2.42;;;9.10;99.90;;;;;;4992951;28;20073;-74